Time;durP1;ratioP1;P1;durP2;ratioP2;P2;SDS_P1;SDS_P2;PMS_P1;PMS_P2;Temp;Humidity;BMP_temperature;BMP_pressure;BME280_temperature;BME280_humidity;BME280_pressure;Samples;Min_cycle;Max_cycle;Signal;HPM_P1;HPM_P2
2022/02/14 00:00:09;;;;;;;12.23;7.67;;;;;;;-0.74;69.52;97644.34;6225451;28;20212;-70
2022/02/14 00:03:14;;;;;;;10.73;7.03;;;;;;;-0.61;68.95;97652.53;6224909;28;20266;-72
2022/02/14 00:06:16;;;;;;;12.63;7.67;;;;;;;-0.60;69.06;97655.03;6224632;28;20638;-72
2022/02/14 00:09:18;;;;;;;10.73;7.73;;;;;;;-0.29;67.92;97649.56;6224969;28;20219;-73
2022/02/14 00:12:20;;;;;;;10.70;7.13;;;;;;;-0.15;67.22;97642.13;6225257;28;20671;-73
2022/02/14 00:15:22;;;;;;;11.90;7.10;;;;;;;-0.32;68.10;97643.69;6228258;28;20258;-71
2022/02/14 00:18:25;;;;;;;9.03;6.57;;;;;;;-0.29;67.30;97641.78;6211485;28;20654;-72
2022/02/14 00:21:27;;;;;;;9.57;7.10;;;;;;;-0.47;68.60;97629.53;6230120;28;20223;-71
2022/02/14 00:24:29;;;;;;;9.73;6.67;;;;;;;-0.65;68.89;97623.28;6226878;28;20231;-71
2022/02/14 00:27:33;;;;;;;9.97;7.17;;;;;;;-0.66;69.06;97631.09;6227704;28;20309;-72
2022/02/14 00:30:35;;;;;;;11.70;7.60;;;;;;;-0.73;69.49;97624.47;6228730;28;20231;-72
2022/02/14 00:33:37;;;;;;;11.43;7.10;;;;;;;-0.82;69.49;97620.47;6203918;28;20228;-73
2022/02/14 00:36:41;;;;;;;9.10;6.83;;;;;;;-0.89;69.70;97613.78;6227660;28;20239;-72
2022/02/14 00:39:44;;;;;;;11.97;7.50;;;;;;;-1.03;70.30;97611.72;6230524;28;20232;-72
2022/02/14 00:42:46;;;;;;;10.13;7.23;;;;;;;-1.14;70.58;97612.09;6222212;28;20352;-72
2022/02/14 00:45:49;;;;;;;10.57;6.33;;;;;;;-1.16;70.73;97610.44;6234114;28;20239;-73
2022/02/14 00:48:51;;;;;;;12.37;7.67;;;;;;;-1.08;70.48;97612.75;6232326;28;20387;-72
2022/02/14 00:51:54;;;;;;;10.40;6.73;;;;;;;-1.16;70.89;97610.44;6227428;28;20231;-72
2022/02/14 00:54:57;;;;;;;12.17;7.30;;;;;;;-1.25;70.95;97601.25;6227276;28;20231;-71
2022/02/14 00:58:00;;;;;;;12.23;7.33;;;;;;;-1.34;71.18;97603.31;6227668;28;20254;-71
2022/02/14 01:01:04;;;;;;;10.90;7.83;;;;;;;-1.31;71.57;97596.31;6228526;28;20216;-72
2022/02/14 01:04:07;;;;;;;9.97;6.60;;;;;;;-1.33;71.50;97602.41;6228458;28;20227;-72
2022/02/14 01:07:09;;;;;;;11.27;7.13;;;;;;;-1.41;71.64;97599.25;6228631;28;20738;-72
2022/02/14 01:10:13;;;;;;;11.60;7.53;;;;;;;-1.50;72.05;97600.41;6221960;28;20584;-72
2022/02/14 01:13:15;;;;;;;9.80;7.13;;;;;;;-1.62;72.05;97595.66;6203823;28;20247;-72
2022/02/14 01:16:17;;;;;;;10.53;6.77;;;;;;;-1.71;72.19;97594.22;6209753;28;20224;-72
2022/02/14 01:19:20;;;;;;;9.53;6.90;;;;;;;-1.79;72.65;97603.09;6228590;28;20266;-72
2022/02/14 01:22:22;;;;;;;10.03;7.03;;;;;;;-1.93;72.94;97601.81;6226584;28;20696;-72
2022/02/14 01:25:24;;;;;;;11.93;7.90;;;;;;;-2.04;72.94;97598.72;6211141;28;20231;-72
2022/02/14 01:28:26;;;;;;;12.40;7.93;;;;;;;-2.06;73.47;97591.91;6224602;28;20231;-73
2022/02/14 01:31:29;;;;;;;11.10;7.37;;;;;;;-2.11;73.54;97589.47;6219397;28;20378;-73
2022/02/14 01:34:31;;;;;;;12.00;7.67;;;;;;;-2.13;73.58;97596.44;6227832;28;20236;-73
2022/02/14 01:37:36;;;;;;;10.53;7.13;;;;;;;-2.19;73.68;97594.03;6226864;28;20239;-73
2022/02/14 01:40:38;;;;;;;11.07;7.37;;;;;;;-2.27;74.48;97594.25;6226561;28;20231;-72
2022/02/14 01:43:43;;;;;;;12.33;7.87;;;;;;;-2.35;73.92;97590.22;6226908;28;20260;-72
2022/02/14 01:46:45;;;;;;;10.13;7.27;;;;;;;-2.38;74.24;97586.00;6225025;28;20230;-71
2022/02/14 01:49:49;;;;;;;10.60;7.40;;;;;;;-2.45;74.39;97579.31;6227084;28;20227;-72
2022/02/14 01:52:54;;;;;;;9.97;7.50;;;;;;;-2.54;74.37;97582.19;6226509;28;20656;-71
2022/02/14 01:55:56;;;;;;;13.27;7.27;;;;;;;-2.64;74.07;97580.78;6226177;28;20243;-73
2022/02/14 01:58:58;;;;;;;10.13;7.00;;;;;;;-2.74;74.95;97587.94;6226891;28;20382;-73
2022/02/14 02:02:01;;;;;;;12.43;7.80;;;;;;;-2.80;74.70;97587.28;6226625;28;20236;-70
2022/02/14 02:05:04;;;;;;;11.77;8.60;;;;;;;-2.86;75.38;97590.03;6225800;28;20289;-72
2022/02/14 02:08:08;;;;;;;12.73;7.77;;;;;;;-2.92;75.56;97585.91;6226880;28;20602;-72
2022/02/14 02:14:31;;;;;;;10.10;6.73;;;;;;;-3.07;75.90;97571.69;6226402;28;20235;-73
2022/02/14 02:17:36;;;;;;;12.33;7.03;;;;;;;-3.12;75.85;97578.72;6225692;28;20235;-72
2022/02/14 02:20:38;;;;;;;9.20;6.67;;;;;;;-3.19;75.69;97579.75;6225057;28;20282;-72
2022/02/14 02:23:41;;;;;;;10.73;6.93;;;;;;;-3.27;75.81;97589.44;6225836;28;20405;-72
2022/02/14 02:27:05;;;;;;;12.17;8.50;;;;;;;-3.36;75.85;97580.22;6231579;28;20314;-72
2022/02/14 02:30:09;;;;;;;9.47;6.97;;;;;;;-3.48;76.32;97580.53;6225650;28;20775;-72
2022/02/14 02:33:11;;;;;;;9.57;6.97;;;;;;;-3.55;76.32;97573.84;6226504;28;20224;-73
2022/02/14 02:36:13;;;;;;;12.60;8.10;;;;;;;-3.62;76.95;97569.75;6215869;28;20239;-73
2022/02/14 02:39:17;;;;;;;13.23;7.57;;;;;;;-3.69;76.83;97568.19;6225471;28;20216;-72
2022/02/14 02:42:20;;;;;;;11.27;7.07;;;;;;;-3.77;76.93;97567.56;6208138;28;20227;-72
2022/02/14 02:45:22;;;;;;;12.20;7.77;;;;;;;-3.86;77.14;97565.22;6225949;28;20227;-73
2022/02/14 02:48:25;;;;;;;13.40;8.53;;;;;;;-3.90;76.49;97566.19;6224488;28;20697;-73
2022/02/14 02:51:27;;;;;;;9.63;7.23;;;;;;;-3.96;76.93;97571.47;6226045;28;20239;-72
2022/02/14 02:54:30;;;;;;;11.60;7.60;;;;;;;-3.99;77.26;97569.00;6224005;28;20223;-72
2022/02/14 02:57:32;;;;;;;10.87;7.17;;;;;;;-4.04;77.04;97571.69;6224783;28;20231;-72
2022/02/14 03:00:34;;;;;;;13.03;7.67;;;;;;;-4.07;77.04;97573.47;6225463;28;20246;-74
2022/02/14 03:03:36;;;;;;;11.53;6.83;;;;;;;-4.11;77.83;97572.72;6225601;28;20231;-72
2022/02/14 03:06:39;;;;;;;12.57;8.40;;;;;;;-4.16;77.85;97572.81;6223575;28;20285;-74
2022/02/14 03:09:41;;;;;;;10.57;7.83;;;;;;;-4.22;78.05;97566.97;6223547;28;20704;-73
2022/02/14 03:12:43;;;;;;;11.40;7.50;;;;;;;-4.28;78.09;97565.38;6202177;28;20232;-72
2022/02/14 03:15:45;;;;;;;13.27;8.13;;;;;;;-4.34;78.17;97562.09;6215109;28;20418;-73
2022/02/14 03:18:47;;;;;;;10.23;7.60;;;;;;;-4.40;77.93;97562.25;6222837;28;20227;-72
2022/02/14 03:21:50;;;;;;;12.33;7.50;;;;;;;-4.45;78.44;97557.19;6213524;28;20239;-72
2022/02/14 03:24:52;;;;;;;11.90;7.90;;;;;;;-4.47;78.19;97558.94;6205184;28;20260;-73
2022/02/14 03:27:55;;;;;;;14.17;8.50;;;;;;;-4.49;78.30;97558.97;6204317;28;20596;-73
2022/02/14 03:30:59;;;;;;;13.17;7.53;;;;;;;-4.53;78.92;97548.81;6225371;28;20239;-73
2022/02/14 03:34:01;;;;;;;10.73;8.03;;;;;;;-4.60;78.67;97550.69;6224615;28;20235;-71
2022/02/14 03:37:03;;;;;;;11.17;8.03;;;;;;;-4.65;78.59;97546.50;6224868;28;20232;-73
2022/02/14 03:40:06;;;;;;;12.00;8.80;;;;;;;-4.74;79.12;97544.13;6202381;28;20720;-72
2022/02/14 03:43:10;;;;;;;13.00;8.00;;;;;;;-4.80;79.20;97549.44;6224723;28;20619;-72
2022/02/14 03:46:12;;;;;;;9.80;7.57;;;;;;;-4.84;78.84;97551.22;6213239;28;20242;-73
2022/02/14 03:49:15;;;;;;;12.83;7.90;;;;;;;-4.84;78.95;97546.06;6229996;28;20268;-73
2022/02/14 03:52:17;;;;;;;11.13;7.73;;;;;;;-4.89;79.23;97551.28;6229613;28;20425;-74
2022/02/14 03:55:21;;;;;;;12.70;8.43;;;;;;;-4.94;79.52;97549.72;6212009;28;20775;-72
2022/02/14 03:58:23;;;;;;;9.40;7.47;;;;;;;-4.99;79.51;97554.94;6230240;28;20738;-73
2022/02/14 04:01:25;;;;;;;11.50;7.67;;;;;;;-5.04;79.43;97555.94;6228500;28;20220;-74
2022/02/14 04:04:28;;;;;;;11.00;7.50;;;;;;;-5.08;79.23;97551.72;6228642;28;20243;-73
2022/02/14 04:07:30;;;;;;;11.27;7.67;;;;;;;-5.14;79.59;97544.13;6204530;28;20236;-73
2022/02/14 04:10:32;;;;;;;10.83;7.60;;;;;;;-5.21;79.94;97549.41;6218578;28;20236;-73
2022/02/14 04:13:34;;;;;;;10.73;7.87;;;;;;;-5.25;79.88;97534.06;6214036;28;20599;-72
2022/02/14 04:16:36;;;;;;;12.70;8.77;;;;;;;-5.30;80.24;97541.88;6211289;28;20318;-72
2022/02/14 04:19:39;;;;;;;11.77;7.50;;;;;;;-5.34;80.13;97541.97;6228670;28;20544;-72
2022/02/14 04:22:41;;;;;;;11.10;8.03;;;;;;;-5.39;80.23;97530.94;6228775;28;20235;-73
2022/02/14 04:25:44;;;;;;;12.43;8.70;;;;;;;-5.40;80.28;97531.81;6229575;28;20700;-73
2022/02/14 04:28:46;;;;;;;12.57;8.37;;;;;;;-5.45;80.58;97531.88;6229539;28;20232;-72
2022/02/14 04:31:49;;;;;;;12.37;7.93;;;;;;;-5.50;80.43;97540.56;6229036;28;20234;-72
2022/02/14 04:34:51;;;;;;;13.77;9.07;;;;;;;-5.53;80.44;97532.91;6218853;28;20240;-72
2022/02/14 04:37:54;;;;;;;13.17;8.40;;;;;;;-5.45;80.63;97539.59;6223536;28;20247;-73
2022/02/14 04:40:56;;;;;;;18.83;10.77;;;;;;;-5.41;81.15;97540.41;6218509;28;20240;-73
2022/02/14 04:43:59;;;;;;;16.57;9.13;;;;;;;-5.47;81.26;97541.34;6220623;28;20238;-73
2022/02/14 04:47:01;;;;;;;20.13;9.40;;;;;;;-5.49;82.07;97535.38;6231784;28;20236;-72
2022/02/14 04:50:04;;;;;;;13.83;8.30;;;;;;;-5.52;81.12;97542.31;6232373;28;20723;-72
2022/02/14 04:53:06;;;;;;;12.90;8.80;;;;;;;-5.57;81.42;97535.53;6230001;28;20864;-72
2022/02/14 04:56:08;;;;;;;16.07;8.90;;;;;;;-5.63;81.73;97524.53;6227390;28;20234;-72
2022/02/14 04:59:14;;;;;;;14.13;8.87;;;;;;;-5.69;81.49;97530.63;6227513;28;20733;-72
2022/02/14 05:02:16;;;;;;;14.40;9.13;;;;;;;-5.64;81.59;97528.81;6229000;28;20235;-72
2022/02/14 05:05:18;;;;;;;15.07;9.07;;;;;;;-5.67;81.68;97534.00;6226467;28;20238;-72
2022/02/14 05:08:21;;;;;;;16.30;9.27;;;;;;;-5.68;81.67;97521.19;6228555;28;20231;-70
2022/02/14 05:11:23;;;;;;;13.67;8.50;;;;;;;-5.70;81.93;97534.09;6222997;28;20414;-72
2022/02/14 05:14:25;;;;;;;14.23;8.93;;;;;;;-5.71;81.86;97527.25;6227780;28;20231;-74
2022/02/14 05:17:27;;;;;;;14.83;8.83;;;;;;;-5.74;82.06;97539.31;6226855;28;20362;-73
2022/02/14 05:20:30;;;;;;;14.13;8.83;;;;;;;-5.79;81.68;97536.81;6227416;28;20256;-72
2022/02/14 05:23:32;;;;;;;12.37;8.17;;;;;;;-5.85;81.54;97538.66;6228411;28;20288;-73
2022/02/14 05:26:34;;;;;;;14.13;9.53;;;;;;;-5.91;81.54;97539.66;6227659;28;20620;-72
2022/02/14 05:29:36;;;;;;;14.47;8.87;;;;;;;-5.96;81.62;97544.00;6210260;28;20232;-73
2022/02/14 05:32:39;;;;;;;14.17;9.23;;;;;;;-6.02;81.75;97541.56;6218679;28;20250;-73
2022/02/14 05:35:41;;;;;;;18.63;9.50;;;;;;;-6.06;81.60;97548.44;6227542;28;20231;-72
2022/02/14 05:38:46;;;;;;;12.77;8.33;;;;;;;-6.11;82.39;97545.13;6217697;28;20311;-72
2022/02/14 05:41:48;;;;;;;15.85;11.88;;;;;;;-5.75;81.39;97553.88;6209346;28;21090;-71
2022/02/14 05:44:50;;;;;;;16.20;9.67;;;;;;;-5.98;82.23;97551.72;6225793;28;20626;-71
2022/02/14 05:47:53;;;;;;;12.80;8.47;;;;;;;-6.05;82.39;97559.56;6227130;28;20246;-71
2022/02/14 05:50:55;;;;;;;12.77;8.40;;;;;;;-6.09;82.25;97556.19;6227923;28;20376;-72
2022/02/14 05:53:59;;;;;;;16.23;9.13;;;;;;;-6.12;82.43;97546.00;6227337;28;20617;-72
2022/02/14 05:57:01;;;;;;;15.03;9.40;;;;;;;-6.14;82.10;97549.47;6226924;28;20632;-70
2022/02/14 06:00:06;;;;;;;14.47;8.87;;;;;;;-6.17;82.17;97554.63;6225105;28;20224;-71
2022/02/14 06:03:08;;;;;;;14.83;8.53;;;;;;;-6.19;82.25;97558.97;6228076;28;20630;-71
2022/02/14 06:06:10;;;;;;;17.93;8.87;;;;;;;-6.20;82.67;97559.84;6226358;28;20233;-72
2022/02/14 06:09:13;;;;;;;14.93;9.50;;;;;;;-6.22;81.82;97553.88;6227211;28;20242;-72
2022/02/14 06:12:15;;;;;;;16.87;9.97;;;;;;;-6.25;82.39;97559.91;6224776;28;20223;-71
2022/02/14 06:15:17;;;;;;;16.80;9.90;;;;;;;-6.27;82.19;97560.78;6226510;28;20219;-72
2022/02/14 06:18:19;;;;;;;13.07;9.30;;;;;;;-6.29;82.51;97562.56;6225590;28;20216;-72
2022/02/14 06:21:22;;;;;;;17.00;9.97;;;;;;;-6.26;82.49;97555.63;6226752;28;20704;-72
2022/02/14 06:24:24;;;;;;;14.03;9.37;;;;;;;-6.24;83.15;97560.75;6225166;28;20714;-71
2022/02/14 06:27:26;;;;;;;14.23;8.73;;;;;;;-6.22;82.68;97562.44;6224384;28;20605;-71
2022/02/14 06:30:28;;;;;;;17.20;9.73;;;;;;;-6.23;82.01;97565.88;6226069;28;20570;-73
2022/02/14 06:33:32;;;;;;;13.23;9.23;;;;;;;-6.21;82.54;97566.69;6227203;28;20853;-71
2022/02/14 06:36:34;;;;;;;13.27;8.90;;;;;;;-6.17;82.20;97570.91;6226194;28;20763;-71
2022/02/14 06:39:36;;;;;;;16.43;8.97;;;;;;;-6.16;82.83;97572.59;6224348;28;20242;-70
2022/02/14 06:42:39;;;;;;;12.50;8.40;;;;;;;-6.14;82.57;97567.44;6214476;28;20232;-72
2022/02/14 06:45:41;;;;;;;16.90;9.77;;;;;;;-6.13;82.12;97562.28;6222036;28;20829;-70
2022/02/14 06:48:43;;;;;;;12.27;8.83;;;;;;;-6.11;82.32;97560.53;6226004;28;20469;-72
2022/02/14 06:51:46;;;;;;;15.23;9.33;;;;;;;-6.08;82.30;97557.91;6225709;28;20601;-71
2022/02/14 06:54:48;;;;;;;15.00;9.13;;;;;;;-6.04;82.26;97562.13;6209142;28;20305;-72
2022/02/14 06:57:50;;;;;;;19.23;10.67;;;;;;;-6.03;82.79;97552.69;6224191;28;20258;-72
2022/02/14 07:00:53;;;;;;;15.50;10.23;;;;;;;-5.99;82.85;97554.34;6225916;28;20719;-72
2022/02/14 07:03:56;;;;;;;16.73;9.70;;;;;;;-5.96;82.42;97561.97;6225026;28;20369;-72
2022/02/14 07:06:59;;;;;;;13.53;9.60;;;;;;;-5.93;82.65;97563.66;6224627;28;20231;-72
2022/02/14 07:10:02;;;;;;;11.63;8.10;;;;;;;-5.89;82.61;97558.47;6220488;28;20236;-69
2022/02/14 07:13:04;;;;;;;15.03;8.90;;;;;;;-5.84;82.66;97556.59;6219910;28;20228;-72
2022/02/14 07:16:07;;;;;;;14.47;9.43;;;;;;;-5.77;82.72;97560.75;6225002;28;20777;-71
2022/02/14 07:19:10;;;;;;;15.60;10.23;;;;;;;-5.69;82.84;97558.88;6226046;28;20232;-72
2022/02/14 07:22:12;;;;;;;14.73;9.77;;;;;;;-5.65;82.52;97559.69;6225940;28;20239;-74
2022/02/14 07:25:15;;;;;;;12.17;8.03;;;;;;;-5.60;82.41;97552.75;6226543;28;20325;-74
2022/02/14 07:28:18;;;;;;;14.30;9.50;;;;;;;-5.53;82.49;97550.91;6225509;28;20230;-71
2022/02/14 07:31:22;;;;;;;14.47;9.50;;;;;;;-5.47;82.40;97543.91;6226514;28;20696;-70
2022/02/14 07:34:24;;;;;;;14.03;9.13;;;;;;;-5.42;82.62;97544.69;6225638;28;20599;-71
2022/02/14 07:37:26;;;;;;;13.70;8.93;;;;;;;-5.35;81.78;97548.81;6215773;28;20772;-71
2022/02/14 07:40:30;;;;;;;16.07;8.63;;;;;;;-5.27;82.55;97546.94;6217594;28;20235;-72
2022/02/14 07:43:32;;;;;;;16.20;10.57;;;;;;;-5.16;82.31;97553.59;6215747;28;20236;-72
2022/02/14 07:46:34;;;;;;;16.27;10.10;;;;;;;-5.09;82.54;97544.91;6215868;28;20240;-72
2022/02/14 07:49:37;;;;;;;14.73;8.97;;;;;;;-4.98;82.67;97550.63;6200893;28;20708;-71
2022/02/14 07:52:40;;;;;;;17.83;10.67;;;;;;;-4.86;82.13;97555.53;6199321;28;20244;-72
2022/02/14 07:55:42;;;;;;;15.43;9.37;;;;;;;-4.78;82.07;97539.91;6200305;28;20837;-72
2022/02/14 07:58:49;;;;;;;15.33;9.97;;;;;;;-4.74;81.67;97539.81;6216174;28;20240;-72
2022/02/14 08:01:52;;;;;;;14.77;9.30;;;;;;;-4.68;82.94;97531.09;6200723;28;20232;-72
2022/02/14 08:04:54;;;;;;;19.80;10.97;;;;;;;-4.53;82.89;97538.50;6184077;28;20233;-72
2022/02/14 08:08:05;;;;;;;17.80;11.30;;;;;;;-4.43;82.17;97539.13;6201224;28;20593;-72
2022/02/14 08:11:27;;;;;;;14.33;9.53;;;;;;;-4.33;82.16;97538.88;6201968;28;20225;-72
2022/02/14 08:14:29;;;;;;;19.60;11.00;;;;;;;-4.18;82.38;97533.34;6214787;28;20243;-72
2022/02/14 08:17:35;;;;;;;19.67;12.63;;;;;;;-4.00;81.98;97529.50;6225059;28;20248;-72
2022/02/14 08:20:38;;;;;;;15.10;10.47;;;;;;;-3.91;81.91;97518.94;6225249;28;20238;-72
2022/02/14 08:23:40;;;;;;;16.07;10.67;;;;;;;-3.78;82.30;97522.03;6225386;28;20377;-72
2022/02/14 08:26:43;;;;;;;17.00;11.17;;;;;;;-3.58;81.82;97516.34;6224673;28;20383;-73
2022/02/14 08:29:46;;;;;;;21.47;12.87;;;;;;;-3.35;81.88;97508.84;6225491;28;20774;-72
2022/02/14 08:32:50;;;;;;;19.30;12.47;;;;;;;-3.08;81.50;97502.88;6219583;28;20298;-72
2022/02/14 08:35:54;;;;;;;16.07;12.07;;;;;;;-2.77;80.64;97504.53;6210888;28;20599;-72
2022/02/14 08:38:57;;;;;;;17.43;12.20;;;;;;;-2.47;79.92;97493.25;6228727;28;20244;-72
2022/02/14 08:41:59;;;;;;;19.53;11.07;;;;;;;-2.14;79.05;97491.34;6226917;28;20335;-72
2022/02/14 08:45:03;;;;;;;16.63;11.43;;;;;;;-1.81;77.95;97496.28;6225992;28;20326;-72
2022/02/14 08:48:05;;;;;;;18.93;11.07;;;;;;;-1.49;76.75;97488.22;6229587;28;20565;-72
2022/02/14 08:51:07;;;;;;;18.33;10.73;;;;;;;-1.09;75.96;97486.78;6228528;28;20223;-72
2022/02/14 08:54:09;;;;;;;18.97;11.87;;;;;;;-0.69;74.52;97488.69;6226599;28;20212;-72
2022/02/14 08:57:12;;;;;;;14.97;10.00;;;;;;;-0.43;72.76;97484.19;6228633;28;20242;-72
2022/02/14 09:00:15;;;;;;;17.20;10.47;;;;;;;-0.10;71.99;97484.56;6227368;28;20507;-73
2022/02/14 09:03:18;;;;;;;16.97;11.13;;;;;;;0.30;70.37;97477.75;6228693;28;20215;-73
2022/02/14 09:06:21;;;;;;;14.80;10.20;;;;;;;0.64;69.81;97479.69;6226982;28;20219;-73
2022/02/14 09:09:23;;;;;;;13.57;9.60;;;;;;;0.98;68.69;97471.25;6227027;28;20432;-72
2022/02/14 09:12:25;;;;;;;14.87;9.67;;;;;;;1.28;67.96;97469.84;6226547;28;20251;-72
2022/02/14 09:15:27;;;;;;;11.60;9.33;;;;;;;1.59;67.56;97464.03;6227448;28;20230;-72
2022/02/14 09:18:30;;;;;;;15.53;10.17;;;;;;;1.76;65.73;97466.66;6227985;28;20228;-72
2022/02/14 09:21:33;;;;;;;15.03;10.57;;;;;;;2.08;64.12;97454.69;6228057;28;20243;-73
2022/02/14 09:24:37;;;;;;;17.27;10.63;;;;;;;2.29;63.33;97457.13;6226581;28;20224;-72
2022/02/14 09:27:39;;;;;;;13.23;10.30;;;;;;;2.58;63.63;97451.25;6226028;28;20311;-72
2022/02/14 09:30:41;;;;;;;16.17;11.37;;;;;;;2.55;61.68;97451.41;6226610;28;20516;-73
2022/02/14 09:33:43;;;;;;;16.33;10.57;;;;;;;2.55;61.84;97454.00;6226837;28;20598;-73
2022/02/14 09:36:47;;;;;;;15.10;11.73;;;;;;;2.85;60.04;97448.94;6227739;28;20747;-70
2022/02/14 09:39:49;;;;;;;14.43;10.80;;;;;;;3.04;60.97;97452.25;6225074;28;20609;-71
2022/02/14 09:42:53;;;;;;;18.17;11.00;;;;;;;3.26;59.31;97449.31;6207276;28;20582;-72
2022/02/14 09:45:55;;;;;;;14.67;10.20;;;;;;;3.41;58.13;97456.28;6227620;28;20729;-72
2022/02/14 09:49:02;;;;;;;13.43;10.50;;;;;;;3.47;57.36;97450.75;6226152;28;20657;-72
2022/02/14 09:52:05;;;;;;;15.50;10.43;;;;;;;3.57;58.25;97448.47;6228682;28;20702;-72
2022/02/14 09:55:08;;;;;;;13.43;10.10;;;;;;;3.67;57.26;97449.63;6227327;28;20233;-72
2022/02/14 09:58:11;;;;;;;13.60;10.07;;;;;;;3.65;56.90;97456.69;6226917;28;20224;-71
2022/02/14 10:01:13;;;;;;;14.20;10.30;;;;;;;3.92;56.66;97455.13;6227940;28;20526;-73
2022/02/14 10:04:15;;;;;;;13.77;9.60;;;;;;;4.20;56.51;97449.16;6227259;28;20366;-73
2022/02/14 10:07:19;;;;;;;14.13;10.40;;;;;;;4.64;55.79;97443.91;6227749;28;20254;-72
2022/02/14 10:10:27;;;;;;;17.67;10.93;;;;;;;4.72;54.59;97441.66;6223164;28;20655;-73
2022/02/14 10:13:34;;;;;;;12.17;10.40;;;;;;;4.46;54.31;97447.63;6225852;28;20240;-72
2022/02/14 10:16:37;;;;;;;16.63;11.20;;;;;;;4.35;54.59;97453.50;6208922;28;20715;-71
2022/02/14 10:20:00;;;;;;;16.27;10.93;;;;;;;4.23;54.49;97440.31;6226161;28;20224;-72
2022/02/14 10:23:05;;;;;;;18.67;11.13;;;;;;;4.44;54.80;97439.03;6227191;28;20265;-71
2022/02/14 10:26:08;;;;;;;13.13;9.60;;;;;;;4.65;54.42;97429.91;6227829;28;20608;-73
2022/02/14 10:29:24;;;;;;;15.23;10.83;;;;;;;4.71;52.78;97428.69;6226107;28;20287;-73
2022/02/14 10:32:27;;;;;;;18.03;10.97;;;;;;;4.54;54.31;97432.31;6226929;28;20336;-73
2022/02/14 10:35:45;;;;;;;14.17;10.33;;;;;;;4.48;53.37;97434.47;6222540;28;20237;-72
2022/02/14 10:38:48;;;;;;;16.97;10.80;;;;;;;4.50;53.55;97415.13;6226253;28;20725;-73
2022/02/14 10:42:03;;;;;;;14.30;10.27;;;;;;;4.25;53.59;97421.00;6214242;28;20373;-73
2022/02/14 10:45:08;;;;;;;15.50;10.77;;;;;;;4.03;54.52;97404.91;6241079;28;20305;-73
2022/02/14 10:48:14;;;;;;;13.60;9.90;;;;;;;4.25;54.25;97410.56;6226182;28;20212;-73
2022/02/14 10:51:18;;;;;;;13.87;10.50;;;;;;;4.41;52.52;97411.31;6226941;28;20620;-75
2022/02/14 10:54:20;;;;;;;13.67;9.53;;;;;;;4.74;53.98;97407.59;6225221;28;20218;-73
2022/02/14 10:57:26;;;;;;;15.37;10.33;;;;;;;5.09;51.48;97405.44;6224549;28;20603;-72
2022/02/14 11:00:36;;;;;;;13.37;9.73;;;;;;;5.25;52.14;97402.66;6228499;28;20473;-74
2022/02/14 11:03:44;;;;;;;16.17;10.87;;;;;;;5.10;51.90;97397.47;6223532;28;20228;-73
2022/02/14 11:06:48;;;;;;;14.13;10.27;;;;;;;5.25;50.81;97393.03;6224355;28;20301;-73
2022/02/14 11:09:51;;;;;;;14.57;10.60;;;;;;;5.13;50.90;97392.03;6222531;28;20228;-73
2022/02/14 11:13:01;;;;;;;13.13;9.70;;;;;;;5.61;50.42;97391.59;6208357;28;20243;-73
2022/02/14 11:16:03;;;;;;;13.93;10.17;;;;;;;6.02;49.56;97391.53;6224508;28;20250;-73
2022/02/14 11:19:09;;;;;;;18.00;10.90;;;;;;;6.01;48.37;97380.22;6224075;28;20236;-73
2022/02/14 11:22:11;;;;;;;15.90;10.60;;;;;;;5.87;49.19;97375.88;6224695;28;20243;-72
2022/02/14 11:25:32;;;;;;;16.03;10.47;;;;;;;5.59;50.16;97368.13;6225231;28;20227;-75
2022/02/14 11:28:45;;;;;;;13.10;9.37;;;;;;;6.20;50.01;97361.47;6208969;28;20755;-73
2022/02/14 11:31:47;;;;;;;14.90;10.40;;;;;;;6.59;48.34;97363.16;6223506;28;20232;-73
2022/02/14 11:34:58;;;;;;;14.63;10.33;;;;;;;6.32;47.75;97362.44;6226112;28;20236;-73
2022/02/14 11:38:01;;;;;;;15.30;10.43;;;;;;;6.04;48.10;97348.59;6215819;28;20271;-75
2022/02/14 11:41:27;;;;;;;14.67;10.73;;;;;;;5.93;49.57;97357.16;6213226;28;20231;-74
2022/02/14 11:44:29;;;;;;;13.63;10.27;;;;;;;6.06;50.16;97344.09;6225710;28;20227;-73
2022/02/14 11:47:34;;;;;;;17.97;11.07;;;;;;;6.37;49.42;97339.38;6224045;28;20252;-74
2022/02/14 11:50:40;;;;;;;15.13;9.77;;;;;;;6.49;47.64;97343.78;6207476;28;20230;-72
2022/02/14 11:53:48;;;;;;;10.40;8.53;;;;;;;6.58;47.99;97338.75;6225513;28;20641;-71
2022/02/14 11:56:51;;;;;;;12.80;10.23;;;;;;;6.54;46.16;97328.56;6225232;28;20631;-73
2022/02/14 12:00:18;;;;;;;14.90;9.63;;;;;;;6.47;47.28;97330.78;6225604;28;20233;-73
2022/02/14 12:03:20;;;;;;;12.77;9.20;;;;;;;6.96;46.94;97320.28;6227425;28;20708;-74
2022/02/14 12:06:22;;;;;;;16.13;10.40;;;;;;;7.00;45.70;97318.28;6230027;28;20231;-73
2022/02/14 12:09:25;;;;;;;14.80;9.67;;;;;;;7.32;46.06;97301.03;6230225;28;20248;-74
2022/02/14 12:12:41;;;;;;;12.80;9.13;;;;;;;7.48;45.45;97300.75;6227490;28;20240;-72
2022/02/14 12:22:30;;;;;;;12.97;9.23;;;;;;;8.33;42.19;97290.81;6220006;28;20642;-74
2022/02/14 12:25:35;;;;;;;13.87;9.40;;;;;;;7.88;43.79;97287.28;6211768;28;20243;-73
2022/02/14 12:28:40;;;;;;;14.33;9.10;;;;;;;7.96;42.49;97279.66;6227835;28;20240;-74
2022/02/14 12:31:48;;;;;;;13.23;9.20;;;;;;;7.65;43.25;97283.75;6229456;28;20230;-73
2022/02/14 12:34:52;;;;;;;11.23;9.13;;;;;;;7.28;44.66;97286.47;6230469;28;20316;-73
2022/02/14 12:37:54;;;;;;;16.90;9.43;;;;;;;8.08;44.62;97278.72;6227611;28;20583;-73
2022/02/14 12:41:17;;;;;;;13.50;9.83;;;;;;;7.95;43.37;97276.19;6229477;28;20614;-74
2022/02/14 12:44:19;;;;;;;12.90;9.47;;;;;;;7.82;42.72;97270.16;6229229;28;20229;-74
2022/02/14 12:47:23;;;;;;;13.87;9.83;;;;;;;8.00;43.92;97274.03;6229269;28;20863;-73
2022/02/14 12:50:36;;;;;;;10.87;9.03;;;;;;;8.21;42.52;97262.81;6227427;28;20246;-73
2022/02/14 12:53:43;;;;;;;13.33;9.00;;;;;;;8.29;42.58;97263.88;6227840;28;20232;-73
2022/02/14 12:56:46;;;;;;;15.10;9.70;;;;;;;8.70;42.41;97265.94;6229182;28;20240;-74
2022/02/14 12:59:48;;;;;;;11.57;9.23;;;;;;;8.75;42.00;97265.59;6228632;28;20223;-74
2022/02/14 13:02:53;;;;;;;12.20;10.10;;;;;;;9.03;40.85;97264.19;6228212;28;20225;-74
2022/02/14 13:05:55;;;;;;;13.83;9.77;;;;;;;8.62;42.01;97254.34;6227004;28;20699;-74
2022/02/14 13:08:57;;;;;;;15.70;9.90;;;;;;;8.73;41.84;97243.81;6227733;28;20766;-73
2022/02/14 13:12:11;;;;;;;13.07;9.80;;;;;;;9.16;40.23;97249.09;6207487;28;20239;-74
2022/02/14 13:15:14;;;;;;;14.93;9.80;;;;;;;8.87;40.27;97241.75;6216638;28;20237;-73
2022/02/14 13:18:16;;;;;;;12.83;9.60;;;;;;;9.65;39.91;97243.25;6223047;28;20246;-73
2022/02/14 13:21:19;;;;;;;12.63;9.13;;;;;;;11.00;37.77;97241.22;6228192;28;20215;-73
2022/02/14 13:24:25;;;;;;;11.37;9.30;;;;;;;10.82;37.16;97240.22;6228663;28;20234;-73
2022/02/14 13:27:30;;;;;;;12.27;9.30;;;;;;;11.74;36.20;97223.84;6226139;28;20770;-73
2022/02/14 13:30:36;;;;;;;11.03;8.90;;;;;;;12.81;34.56;97226.97;6228204;28;20718;-74
2022/02/14 13:33:52;;;;;;;12.77;9.10;;;;;;;14.58;31.03;97225.97;6227350;28;20269;-74
2022/02/14 13:36:57;;;;;;;10.83;8.80;;;;;;;16.03;28.92;97216.63;6227075;28;20232;-74
2022/02/14 13:39:59;;;;;;;11.50;8.90;;;;;;;17.58;26.43;97210.44;6225995;28;20232;-73
2022/02/14 13:43:06;;;;;;;12.47;9.43;;;;;;;18.29;25.62;97214.50;6227802;28;20228;-72
2022/02/14 13:46:10;;;;;;;12.40;9.43;;;;;;;18.57;24.07;97208.53;6241746;28;20283;-74
2022/02/14 13:49:31;;;;;;;12.90;9.17;;;;;;;16.10;27.38;97209.59;6227793;28;20588;-73
2022/02/14 13:52:36;;;;;;;12.17;8.87;;;;;;;15.79;27.95;97210.31;6225981;28;20625;-73
2022/02/14 13:55:38;;;;;;;12.57;9.10;;;;;;;15.20;28.53;97202.59;6226127;28;20227;-73
2022/02/14 13:58:43;;;;;;;10.33;8.43;;;;;;;14.21;30.31;97199.69;6225882;28;20366;-73
2022/02/14 14:01:46;;;;;;;11.13;8.90;;;;;;;13.35;31.55;97204.91;6226965;28;20239;-75
2022/02/14 14:04:48;;;;;;;10.57;8.40;;;;;;;11.82;34.16;97212.59;6227178;28;20222;-75
2022/02/14 14:07:51;;;;;;;12.13;8.90;;;;;;;10.78;35.84;97212.44;6210208;28;20235;-74
2022/02/14 14:10:54;;;;;;;10.70;8.90;;;;;;;9.17;39.15;97211.28;6213624;28;20327;-74
2022/02/14 14:13:57;;;;;;;9.63;8.07;;;;;;;8.39;41.67;97204.41;6224838;28;20696;-73
2022/02/14 14:16:59;;;;;;;12.60;8.83;;;;;;;7.78;42.40;97203.06;6226916;28;20398;-74
2022/02/14 14:20:02;;;;;;;11.87;9.47;;;;;;;7.38;43.93;97200.00;6226845;28;20237;-73
2022/02/14 14:23:05;;;;;;;10.10;8.00;;;;;;;7.15;44.51;97209.59;6209726;28;20260;-73
2022/02/14 14:26:08;;;;;;;12.03;8.67;;;;;;;6.97;44.83;97200.47;6224782;28;20234;-73